Time;durP1;ratioP1;P1;durP2;ratioP2;P2;SDS_P1;SDS_P2;PMS_P1;PMS_P2;Temp;Humidity;BMP_temperature;BMP_pressure;BME280_temperature;BME280_humidity;BME280_pressure;Samples;Min_cycle;Max_cycle;Signal;HPM_P1;HPM_P2
2023/09/28 00:02:56;;;;;;;12.25;2.33;;;18.60;93.70;;;;;;5053145;28;20528;-84
2023/09/28 00:05:22;;;;;;;9.13;3.13;;;18.70;93.40;;;;;;5053184;28;20107;-84
2023/09/28 00:07:51;;;;;;;11.15;3.63;;;18.90;93.10;;;;;;5051595;28;20144;-85
2023/09/28 00:10:17;;;;;;;10.77;3.63;;;18.90;93.10;;;;;;5053001;28;20524;-86
2023/09/28 00:12:48;;;;;;;9.77;3.33;;;19.00;93.00;;;;;;5053048;28;20033;-85
2023/09/28 00:15:15;;;;;;;15.88;3.40;;;19.10;92.90;;;;;;5052931;28;20025;-82
2023/09/28 00:17:41;;;;;;;9.95;3.03;;;19.20;92.70;;;;;;5051021;28;20053;-84
2023/09/28 00:20:18;;;;;;;14.63;3.22;;;19.30;92.50;;;;;;5052800;28;20082;-84
2023/09/28 00:22:48;;;;;;;21.75;3.45;;;19.40;92.40;;;;;;5051649;28;20123;-83
2023/09/28 00:25:16;;;;;;;9.52;3.33;;;19.40;92.10;;;;;;5051117;28;20119;-86
2023/09/28 00:27:43;;;;;;;10.23;2.92;;;19.50;91.90;;;;;;5051181;28;20083;-86
2023/09/28 00:30:14;;;;;;;10.77;3.33;;;19.70;91.40;;;;;;5051253;28;20025;-85
2023/09/28 00:32:41;;;;;;;8.48;3.17;;;19.70;91.20;;;;;;5052348;28;20025;-85
2023/09/28 00:35:07;;;;;;;8.95;2.92;;;19.70;91.20;;;;;;5051104;28;20149;-85
2023/09/28 00:37:33;;;;;;;7.88;3.45;;;19.70;91.20;;;;;;5052541;28;20524;-84
2023/09/28 00:39:59;;;;;;;15.85;3.95;;;19.60;91.40;;;;;;5050658;28;20036;-83
2023/09/28 00:42:28;;;;;;;10.68;4.25;;;19.60;91.60;;;;;;5050823;28;20581;-85
2023/09/28 00:44:53;;;;;;;11.05;3.58;;;19.70;91.70;;;;;;5051106;28;20115;-84
2023/09/28 00:47:19;;;;;;;16.20;2.83;;;19.70;91.50;;;;;;5052414;28;20183;-84
2023/09/28 00:49:46;;;;;;;13.40;3.42;;;19.70;91.80;;;;;;5050720;28;20570;-83
2023/09/28 00:52:16;;;;;;;11.07;3.00;;;19.70;91.60;;;;;;5050715;28;20025;-85
2023/09/28 00:54:47;;;;;;;14.30;3.28;;;19.80;91.50;;;;;;5052043;28;20087;-85
2023/09/28 00:57:13;;;;;;;10.05;3.33;;;19.80;91.50;;;;;;5052189;28;20039;-85
2023/09/28 00:59:39;;;;;;;14.18;3.15;;;19.80;91.40;;;;;;5051953;28;20048;-86
2023/09/28 01:02:08;;;;;;;14.70;3.17;;;19.80;91.40;;;;;;5051310;28;20049;-85
2023/09/28 01:04:34;;;;;;;12.23;4.63;;;19.80;91.40;;;;;;5049872;28;20148;-86
2023/09/28 01:07:01;;;;;;;10.77;2.92;;;19.80;91.40;;;;;;5050328;28;20448;-85
2023/09/28 01:09:26;;;;;;;10.02;3.20;;;19.70;91.60;;;;;;5051594;28;20025;-86
2023/09/28 01:11:53;;;;;;;8.43;2.95;;;19.60;91.80;;;;;;5050549;28;20048;-83
2023/09/28 01:14:21;;;;;;;9.40;2.88;;;19.60;91.90;;;;;;5050566;28;20398;-84
2023/09/28 01:16:47;;;;;;;10.00;3.35;;;19.70;91.60;;;;;;5050351;28;20136;-84
2023/09/28 01:19:13;;;;;;;16.30;2.92;;;19.70;91.70;;;;;;5050462;28;20120;-86
2023/09/28 01:21:39;;;;;;;16.73;3.60;;;19.90;91.40;;;;;;5051611;28;20033;-84
2023/09/28 01:24:06;;;;;;;11.02;3.10;;;19.80;91.40;;;;;;5050234;28;20582;-84
2023/09/28 01:26:32;;;;;;;7.07;3.22;;;19.70;92.10;;;;;;5050741;28;20083;-86
2023/09/28 01:28:59;;;;;;;11.60;3.08;;;19.60;91.90;;;;;;5051395;28;20028;-85
2023/09/28 01:31:24;;;;;;;12.43;2.78;;;19.60;91.90;;;;;;5051591;28;20502;-84
2023/09/28 01:33:50;;;;;;;7.47;3.45;;;19.50;92.10;;;;;;5051187;28;20100;-86
2023/09/28 01:36:16;;;;;;;14.82;3.00;;;19.50;92.30;;;;;;5051478;28;20435;-84
2023/09/28 01:38:50;;;;;;;12.80;3.10;;;19.40;92.40;;;;;;5049811;28;20025;-86
2023/09/28 01:41:15;;;;;;;15.38;4.82;;;19.40;92.50;;;;;;5049754;28;20821;-86
2023/09/28 01:43:41;;;;;;;10.27;2.95;;;19.40;92.70;;;;;;5051447;28;20051;-85
2023/09/28 01:46:07;;;;;;;12.15;3.33;;;19.30;92.60;;;;;;5051074;28;20075;-84
2023/09/28 01:48:32;;;;;;;11.38;3.42;;;19.40;92.50;;;;;;5051324;28;20599;-86
2023/09/28 01:51:02;;;;;;;10.70;3.53;;;19.40;92.50;;;;;;5050218;28;20031;-86
2023/09/28 01:53:27;;;;;;;7.75;2.90;;;19.40;92.60;;;;;;5050898;28;20020;-85
2023/09/28 01:55:53;;;;;;;17.67;3.05;;;19.40;92.60;;;;;;5050892;28;20413;-87
2023/09/28 01:58:18;;;;;;;7.82;3.17;;;19.30;92.70;;;;;;5049524;28;20557;-85
2023/09/28 02:00:45;;;;;;;9.57;2.92;;;19.30;92.70;;;;;;5050949;28;20798;-85
2023/09/28 02:03:11;;;;;;;14.50;4.03;;;19.30;92.80;;;;;;5050574;28;20094;-86
2023/09/28 02:05:37;;;;;;;8.52;3.33;;;19.20;92.80;;;;;;5050687;28;20029;-87
2023/09/28 02:08:05;;;;;;;15.38;3.80;;;19.20;92.70;;;;;;5050633;28;20028;-86
2023/09/28 02:10:32;;;;;;;12.50;3.28;;;19.20;92.60;;;;;;5051028;28;20489;-85
2023/09/28 02:12:59;;;;;;;15.10;3.63;;;19.20;92.90;;;;;;5049324;28;20025;-83
2023/09/28 02:15:24;;;;;;;9.23;3.35;;;19.20;92.70;;;;;;5050448;28;20104;-82
2023/09/28 02:17:50;;;;;;;10.50;3.85;;;19.20;93.00;;;;;;5048675;28;20040;-85
2023/09/28 02:20:22;;;;;;;13.07;3.58;;;19.10;93.00;;;;;;5049385;28;20455;-85
2023/09/28 02:22:50;;;;;;;11.23;3.60;;;19.00;93.20;;;;;;5050349;28;20037;-86
2023/09/28 02:25:22;;;;;;;9.02;3.55;;;19.10;93.20;;;;;;5049246;28;20401;-86
2023/09/28 02:27:49;;;;;;;12.32;3.58;;;19.10;93.00;;;;;;5048956;28;20116;-85
2023/09/28 02:30:19;;;;;;;9.32;3.70;;;19.10;92.90;;;;;;5049874;28;20029;-86
2023/09/28 02:32:45;;;;;;;11.88;4.07;;;19.00;93.00;;;;;;5050141;28;20021;-86
2023/09/28 02:35:14;;;;;;;9.27;3.67;;;19.00;93.20;;;;;;5049977;28;20070;-85
2023/09/28 02:37:41;;;;;;;14.38;3.65;;;19.00;93.40;;;;;;5049021;28;20464;-85
2023/09/28 02:40:08;;;;;;;14.68;3.58;;;18.90;93.40;;;;;;5049243;28;20083;-85
2023/09/28 02:42:34;;;;;;;9.55;3.10;;;18.90;93.50;;;;;;5048664;28;20041;-86
2023/09/28 02:45:00;;;;;;;8.13;3.85;;;18.80;93.60;;;;;;5050144;28;20060;-87
2023/09/28 02:47:27;;;;;;;10.63;3.17;;;18.80;93.80;;;;;;5050380;28;20067;-87
2023/09/28 02:49:54;;;;;;;11.98;3.72;;;18.70;93.90;;;;;;5048823;28;20454;-86
2023/09/28 02:52:20;;;;;;;15.15;3.60;;;18.70;94.00;;;;;;5050247;28;20425;-86
2023/09/28 02:54:46;;;;;;;13.50;3.88;;;18.60;94.30;;;;;;5050014;28;20033;-87
2023/09/28 02:57:12;;;;;;;8.70;3.45;;;18.60;94.40;;;;;;5048648;28;20119;-85
2023/09/28 02:59:38;;;;;;;8.05;3.28;;;18.50;94.40;;;;;;5049667;28;20108;-87
2023/09/28 03:02:05;;;;;;;12.25;3.58;;;18.40;94.60;;;;;;5048762;28;20127;-86
2023/09/28 03:04:31;;;;;;;8.60;3.15;;;18.30;95.10;;;;;;5049914;28;20108;-87
2023/09/28 03:06:58;;;;;;;6.55;3.00;;;18.20;96.00;;;;;;5048560;28;20441;-86
2023/09/28 03:09:23;;;;;;;11.27;3.58;;;18.00;96.50;;;;;;5049606;28;20031;-86
2023/09/28 03:11:49;;;;;;;26.50;3.88;;;17.90;97.20;;;;;;5048565;28;20028;-86
2023/09/28 03:14:15;;;;;;;11.75;4.07;;;17.80;97.40;;;;;;5048316;28;20032;-84
2023/09/28 03:16:40;;;;;;;8.25;3.10;;;17.70;97.90;;;;;;5048399;28;20484;-86
2023/09/28 03:19:07;;;;;;;13.88;3.65;;;17.70;97.50;;;;;;5049748;28;20029;-87
2023/09/28 03:21:35;;;;;;;8.10;3.20;;;17.60;97.10;;;;;;5048731;28;20029;-87
2023/09/28 03:24:01;;;;;;;10.38;3.47;;;17.70;97.10;;;;;;5048620;28;20562;-87
2023/09/28 03:26:28;;;;;;;9.30;3.47;;;17.70;96.80;;;;;;5049405;28;20129;-87
2023/09/28 03:28:55;;;;;;;11.98;3.83;;;17.70;96.70;;;;;;5049664;28;20044;-86
2023/09/28 03:31:21;;;;;;;16.25;3.60;;;17.70;96.40;;;;;;5048562;28;20152;-87
2023/09/28 03:33:47;;;;;;;14.02;3.60;;;17.60;96.40;;;;;;5049510;28;20105;-87
2023/09/28 03:36:13;;;;;;;9.63;3.70;;;17.70;96.30;;;;;;5048169;28;20032;-86
2023/09/28 03:38:38;;;;;;;6.28;3.50;;;17.60;96.50;;;;;;5048637;28;20493;-85
2023/09/28 03:41:06;;;;;;;10.15;3.38;;;17.60;96.70;;;;;;5049183;28;20435;-86
2023/09/28 03:43:32;;;;;;;6.15;2.60;;;17.60;96.80;;;;;;5048416;28;20033;-87
2023/09/28 03:45:58;;;;;;;7.05;3.22;;;17.50;97.40;;;;;;5049693;28;20030;-87
2023/09/28 03:48:25;;;;;;;6.85;3.08;;;17.40;97.40;;;;;;5048245;28;20029;-87
2023/09/28 03:50:50;;;;;;;10.45;3.75;;;17.30;97.70;;;;;;5049605;28;20111;-85
2023/09/28 03:53:17;;;;;;;8.82;4.00;;;17.30;97.80;;;;;;5048551;28;20043;-87
2023/09/28 03:55:47;;;;;;;13.82;3.45;;;17.20;97.90;;;;;;5051014;28;20495;-87
2023/09/28 03:58:13;;;;;;;13.20;3.95;;;17.20;97.80;;;;;;5048326;28;20075;-86
2023/09/28 04:00:39;;;;;;;13.23;4.15;;;17.30;97.60;;;;;;5048104;28;20024;-87
2023/09/28 04:03:04;;;;;;;11.45;3.70;;;17.30;97.40;;;;;;5049485;28;20045;-86
2023/09/28 04:05:31;;;;;;;13.75;3.20;;;17.40;97.40;;;;;;5049984;28;20091;-87
2023/09/28 04:07:56;;;;;;;17.35;3.83;;;17.40;97.20;;;;;;5049730;28;20035;-87
2023/09/28 04:10:22;;;;;;;11.90;3.40;;;17.40;97.30;;;;;;5048574;28;20017;-87
2023/09/28 04:12:48;;;;;;;12.07;3.40;;;17.40;97.20;;;;;;5048362;28;20481;-88
2023/09/28 04:15:13;;;;;;;14.43;3.75;;;17.40;97.00;;;;;;5049577;28;20025;-86
2023/09/28 04:17:39;;;;;;;18.67;3.95;;;17.40;96.80;;;;;;5052944;28;20421;-85
2023/09/28 04:20:06;;;;;;;17.65;4.68;;;17.50;96.80;;;;;;5052985;28;20029;-87
2023/09/28 04:22:32;;;;;;;8.18;3.17;;;17.50;96.50;;;;;;5052537;28;20128;-87
2023/09/28 04:24:58;;;;;;;11.98;4.07;;;17.40;96.60;;;;;;5052939;28;20059;-87
2023/09/28 04:27:23;;;;;;;12.02;3.05;;;17.50;96.40;;;;;;5052655;28;20429;-85
2023/09/28 04:29:49;;;;;;;17.08;3.90;;;17.60;95.60;;;;;;5051474;28;20067;-85
2023/09/28 04:32:15;;;;;;;9.40;3.83;;;17.60;95.40;;;;;;5052062;28;20493;-87
2023/09/28 04:34:40;;;;;;;11.65;3.45;;;17.60;95.40;;;;;;5052728;28;20052;-86
2023/09/28 04:37:06;;;;;;;16.77;3.15;;;17.60;95.30;;;;;;5050598;28;20456;-86
2023/09/28 04:39:33;;;;;;;12.65;3.42;;;17.60;95.00;;;;;;5052132;28;20028;-86
2023/09/28 04:41:59;;;;;;;10.45;4.07;;;17.70;94.70;;;;;;5051137;28;20119;-85
2023/09/28 04:44:24;;;;;;;13.18;3.78;;;17.70;94.60;;;;;;5049647;28;20566;-87
2023/09/28 04:46:50;;;;;;;6.93;2.85;;;17.70;94.70;;;;;;5051939;28;20041;-84
2023/09/28 04:49:17;;;;;;;12.50;3.40;;;17.70;94.60;;;;;;5052004;28;20665;-86
2023/09/28 04:51:42;;;;;;;6.18;3.05;;;17.70;94.60;;;;;;5051409;28;20025;-84
2023/09/28 04:54:08;;;;;;;19.63;3.13;;;17.70;94.40;;;;;;5050955;28;20059;-86
2023/09/28 04:56:34;;;;;;;20.08;3.67;;;17.70;94.40;;;;;;5052021;28;20021;-85
2023/09/28 04:58:59;;;;;;;10.43;3.53;;;17.70;94.50;;;;;;5051904;28;20025;-85
2023/09/28 05:01:26;;;;;;;11.27;3.58;;;17.70;94.20;;;;;;5052901;28;20033;-86
2023/09/28 05:03:53;;;;;;;13.07;2.97;;;17.70;94.10;;;;;;5052490;28;20037;-86
2023/09/28 05:06:19;;;;;;;8.52;3.35;;;17.80;94.00;;;;;;5050937;28;20052;-87
2023/09/28 05:08:44;;;;;;;11.50;3.33;;;17.90;93.40;;;;;;5052120;28;20048;-86
2023/09/28 05:11:10;;;;;;;9.85;3.38;;;17.90;93.60;;;;;;5051894;28;20099;-85
2023/09/28 05:13:36;;;;;;;14.35;3.78;;;17.90;94.10;;;;;;5043230;28;20034;-87
2023/09/28 05:16:02;;;;;;;9.40;3.40;;;18.00;93.40;;;;;;5046636;28;20448;-87
2023/09/28 05:18:29;;;;;;;11.02;3.42;;;18.10;92.90;;;;;;5044714;28;20089;-87
2023/09/28 05:20:55;;;;;;;11.63;4.30;;;18.30;92.50;;;;;;5043186;28;20070;-85
2023/09/28 05:23:20;;;;;;;19.05;3.67;;;18.40;92.50;;;;;;5041243;28;20033;-86
2023/09/28 05:25:46;;;;;;;16.33;3.72;;;18.50;91.60;;;;;;5048646;28;20036;-86
2023/09/28 05:28:12;;;;;;;9.48;3.83;;;18.60;91.10;;;;;;5034621;28;20029;-84
2023/09/28 05:30:38;;;;;;;8.45;3.90;;;18.70;90.90;;;;;;5036568;28;20478;-85
2023/09/28 05:33:04;;;;;;;10.35;3.38;;;18.80;91.50;;;;;;5039947;28;20076;-86
2023/09/28 05:35:29;;;;;;;13.77;3.63;;;18.90;90.80;;;;;;5040121;28;20071;-86
2023/09/28 05:37:55;;;;;;;8.20;3.63;;;18.90;90.70;;;;;;5042146;28;20040;-86
2023/09/28 05:40:21;;;;;;;9.23;3.28;;;19.00;90.80;;;;;;5042250;28;20021;-85
2023/09/28 05:42:48;;;;;;;14.75;3.50;;;19.00;91.00;;;;;;5032158;28;20037;-86
2023/09/28 05:45:14;;;;;;;8.95;3.20;;;19.10;91.00;;;;;;5034974;28;20033;-86
2023/09/28 05:47:40;;;;;;;13.65;3.50;;;19.20;91.00;;;;;;5031753;28;20033;-85
2023/09/28 05:50:12;;;;;;;14.88;3.03;;;19.30;90.90;;;;;;5041180;28;20029;-85
2023/09/28 05:52:39;;;;;;;12.70;3.72;;;19.30;90.90;;;;;;5038290;28;20036;-83
2023/09/28 05:55:05;;;;;;;12.25;3.45;;;19.30;90.50;;;;;;5034307;28;20040;-85
2023/09/28 05:57:30;;;;;;;10.07;2.85;;;19.40;90.50;;;;;;5029862;28;20021;-85
2023/09/28 05:59:56;;;;;;;9.52;2.90;;;19.50;90.30;;;;;;5029624;28;20032;-82
2023/09/28 06:02:22;;;;;;;9.00;3.17;;;19.70;90.30;;;;;;5030862;28;20030;-82
2023/09/28 06:04:47;;;;;;;9.77;3.17;;;19.80;89.00;;;;;;5029740;28;20025;-81
2023/09/28 06:07:13;;;;;;;18.58;3.45;;;19.90;89.70;;;;;;5029893;28;20112;-82
2023/09/28 06:09:41;;;;;;;13.25;3.60;;;20.00;89.20;;;;;;5030562;28;20095;-81
2023/09/28 06:12:06;;;;;;;23.95;5.55;;;20.10;88.60;;;;;;5030700;28;20049;-81
2023/09/28 06:14:35;;;;;;;19.42;4.10;;;20.30;89.00;;;;;;5028592;28;20064;-82
2023/09/28 06:17:01;;;;;;;16.83;4.22;;;20.50;88.50;;;;;;5028737;28;20049;-81
2023/09/28 06:19:27;;;;;;;16.52;4.07;;;20.70;88.60;;;;;;5030302;28;20498;-82
2023/09/28 06:21:56;;;;;;;21.08;4.10;;;21.10;88.10;;;;;;5030354;28;20521;-83
2023/09/28 06:24:22;;;;;;;21.42;4.32;;;21.60;86.40;;;;;;5029018;28;20037;-85
2023/09/28 06:26:53;;;;;;;21.88;4.30;;;22.20;84.40;;;;;;5040566;28;20053;-81
2023/09/28 06:29:19;;;;;;;12.23;3.97;;;23.00;80.40;;;;;;5039257;28;20083;-82
2023/09/28 06:31:44;;;;;;;12.57;3.83;;;23.70;77.00;;;;;;5038931;28;20033;-82
2023/09/28 06:34:10;;;;;;;11.48;3.50;;;24.40;71.40;;;;;;5040567;28;20017;-82
2023/09/28 06:36:36;;;;;;;14.38;3.70;;;25.00;67.60;;;;;;5040356;28;20030;-82
2023/09/28 06:39:03;;;;;;;9.57;4.22;;;25.60;64.70;;;;;;5039268;28;20123;-81
2023/09/28 06:41:30;;;;;;;9.23;3.67;;;26.20;61.80;;;;;;5037443;28;20030;-81
2023/09/28 06:43:56;;;;;;;13.50;3.97;;;26.70;59.60;;;;;;5036985;28;20395;-81
2023/09/28 06:46:23;;;;;;;13.63;3.80;;;27.10;57.40;;;;;;5042406;28;20013;-81
2023/09/28 06:48:49;;;;;;;8.48;3.70;;;27.40;55.30;;;;;;5040628;28;20473;-82
2023/09/28 06:51:15;;;;;;;9.00;3.35;;;27.70;54.10;;;;;;5039923;28;20047;-82
2023/09/28 06:53:41;;;;;;;10.40;3.33;;;28.10;51.40;;;;;;5038790;28;20448;-81
2023/09/28 06:56:07;;;;;;;14.93;4.05;;;28.20;50.00;;;;;;5037246;28;20027;-82
2023/09/28 06:58:33;;;;;;;9.25;3.40;;;28.60;50.20;;;;;;5038416;28;20029;-83
2023/09/28 07:00:59;;;;;;;10.90;3.05;;;28.70;48.30;;;;;;5046714;28;20035;-82
2023/09/28 07:03:26;;;;;;;16.65;3.30;;;28.80;48.40;;;;;;5048388;28;20467;-82
2023/09/28 07:05:52;;;;;;;8.88;3.33;;;29.10;48.00;;;;;;5049480;28;20029;-82
2023/09/28 07:08:17;;;;;;;15.18;3.22;;;28.90;46.90;;;;;;5049260;28;20081;-81
2023/09/28 07:10:44;;;;;;;10.02;3.42;;;28.90;47.00;;;;;;5049454;28;20028;-82
2023/09/28 07:13:10;;;;;;;6.35;3.88;;;28.80;46.90;;;;;;5049379;28;20086;-82
2023/09/28 07:15:36;;;;;;;5.82;3.03;;;28.70;47.70;;;;;;5048122;28;20852;-82
2023/09/28 07:18:03;;;;;;;12.27;3.55;;;28.60;48.60;;;;;;5048065;28;20063;-82
2023/09/28 07:20:29;;;;;;;9.57;3.13;;;28.60;48.70;;;;;;5048014;28;20425;-81
2023/09/28 07:22:56;;;;;;;12.82;3.33;;;28.50;47.00;;;;;;5049240;28;20044;-81
2023/09/28 07:25:22;;;;;;;9.57;3.55;;;28.50;47.10;;;;;;5049212;28;20113;-81
2023/09/28 07:27:54;;;;;;;12.32;3.45;;;28.70;47.30;;;;;;5047880;28;20383;-81
2023/09/28 07:30:21;;;;;;;18.52;3.47;;;28.20;47.20;;;;;;5049795;28;20025;-81
2023/09/28 07:32:47;;;;;;;9.25;3.17;;;27.80;47.40;;;;;;5048722;28;20494;-82
2023/09/28 07:35:17;;;;;;;11.98;3.55;;;27.60;47.90;;;;;;5047924;28;20025;-82
2023/09/28 07:37:43;;;;;;;19.58;3.92;;;27.70;48.20;;;;;;5048021;28;20022;-82
2023/09/28 07:40:12;;;;;;;9.98;3.60;;;27.60;47.30;;;;;;5048827;28;20432;-81
2023/09/28 07:42:41;;;;;;;10.65;3.63;;;27.50;48.50;;;;;;5047410;28;20499;-84
2023/09/28 07:45:07;;;;;;;15.98;4.90;;;27.30;48.50;;;;;;5039270;28;20040;-83
2023/09/28 07:47:33;;;;;;;13.45;3.55;;;27.10;49.50;;;;;;5048155;28;20029;-80
2023/09/28 07:50:00;;;;;;;12.30;4.15;;;26.90;49.70;;;;;;5049186;28;20078;-80
2023/09/28 07:52:25;;;;;;;20.13;3.95;;;26.70;50.00;;;;;;5052628;28;20502;-81
2023/09/28 07:54:51;;;;;;;11.88;4.03;;;26.70;50.20;;;;;;5053053;28;20025;-81
2023/09/28 07:57:17;;;;;;;14.60;4.35;;;26.40;49.80;;;;;;5051683;28;20021;-82
2023/09/28 07:59:43;;;;;;;10.18;4.38;;;26.10;51.60;;;;;;5051988;28;20501;-82
2023/09/28 08:02:11;;;;;;;13.90;3.47;;;26.00;51.90;;;;;;5051111;28;20035;-81
2023/09/28 08:04:38;;;;;;;9.75;4.13;;;25.90;52.90;;;;;;5051893;28;20559;-80
2023/09/28 08:07:04;;;;;;;9.70;3.95;;;26.20;52.00;;;;;;5051545;28;20120;-82
2023/09/28 08:09:30;;;;;;;12.77;3.75;;;26.50;51.20;;;;;;5052165;28;20452;-83
2023/09/28 08:11:56;;;;;;;10.95;3.53;;;26.40;50.60;;;;;;5049253;28;20044;-81
2023/09/28 08:14:22;;;;;;;13.57;3.60;;;26.50;51.20;;;;;;5036261;28;20039;-81
2023/09/28 08:16:48;;;;;;;10.80;3.25;;;26.90;51.10;;;;;;5030886;28;20127;-80
2023/09/28 08:19:14;;;;;;;21.90;4.10;;;27.40;50.20;;;;;;5032254;28;20033;-81
2023/09/28 08:21:40;;;;;;;8.63;3.65;;;28.10;48.50;;;;;;5030884;28;20494;-79
2023/09/28 08:24:07;;;;;;;7.72;3.80;;;28.40;47.00;;;;;;5031234;28;20120;-82
2023/09/28 08:26:34;;;;;;;19.58;3.40;;;28.50;46.20;;;;;;5030803;28;20025;-81
2023/09/28 08:29:00;;;;;;;11.25;4.25;;;28.90;46.70;;;;;;5032166;28;20405;-81
2023/09/28 08:31:29;;;;;;;16.63;4.20;;;29.00;45.90;;;;;;5032421;28;20059;-82
2023/09/28 08:33:55;;;;;;;10.02;4.00;;;29.10;45.90;;;;;;5030756;28;20036;-82
2023/09/28 08:36:23;;;;;;;19.38;4.53;;;29.30;45.10;;;;;;5031969;28;20021;-82
2023/09/28 08:38:50;;;;;;;12.15;3.85;;;29.20;46.00;;;;;;5030914;28;20033;-81
2023/09/28 08:41:19;;;;;;;5.60;3.47;;;29.40;44.30;;;;;;5030493;28;20461;-81
2023/09/28 08:44:05;;;;;;;12.65;3.70;;;29.40;44.40;;;;;;5031895;28;20038;-80
2023/09/28 08:46:38;;;;;;;15.43;4.30;;;29.80;45.90;;;;;;5050642;28;20633;-81
2023/09/28 08:49:07;;;;;;;9.18;4.18;;;29.80;44.30;;;;;;5052173;28;20029;-81
2023/09/28 08:51:36;;;;;;;6.32;2.92;;;29.70;44.30;;;;;;5050197;28;20488;-82
2023/09/28 08:54:05;;;;;;;10.32;3.85;;;29.80;44.00;;;;;;5049798;28;20031;-81
2023/09/28 08:56:39;;;;;;;12.50;3.67;;;29.90;44.30;;;;;;5050109;28;20079;-82
2023/09/28 08:59:05;;;;;;;10.20;3.83;;;29.90;44.90;;;;;;5050017;28;20044;-81
2023/09/28 09:01:32;;;;;;;15.38;4.18;;;30.00;43.40;;;;;;5051541;28;20104;-82
2023/09/28 09:03:59;;;;;;;12.60;4.38;;;30.20;44.30;;;;;;5050670;28;20056;-82
2023/09/28 09:06:28;;;;;;;7.78;3.75;;;30.10;45.20;;;;;;5050404;28;20040;-81
2023/09/28 09:08:57;;;;;;;11.25;4.13;;;30.30;44.40;;;;;;5051310;28;20033;-80
2023/09/28 09:11:24;;;;;;;14.60;4.10;;;30.30;44.40;;;;;;5051316;28;20048;-82
2023/09/28 09:13:53;;;;;;;10.30;3.80;;;30.40;44.50;;;;;;5051267;28;20031;-82
2023/09/28 09:16:21;;;;;;;7.53;3.83;;;30.50;43.80;;;;;;5049772;28;20053;-82
2023/09/28 09:18:48;;;;;;;14.75;4.53;;;30.60;43.70;;;;;;5049985;28;20069;-81
2023/09/28 09:21:14;;;;;;;8.93;4.13;;;30.50;43.30;;;;;;5051049;28;20079;-82
2023/09/28 09:23:39;;;;;;;9.18;3.78;;;30.80;42.30;;;;;;5049687;28;20460;-82
2023/09/28 09:26:17;;;;;;;13.75;4.32;;;30.70;42.00;;;;;;5049847;28;20035;-82
2023/09/28 09:28:46;;;;;;;11.07;4.40;;;30.40;42.60;;;;;;5050819;28;20039;-82
2023/09/28 09:31:13;;;;;;;10.35;3.63;;;30.40;43.40;;;;;;5051080;28;20108;-80
2023/09/28 09:33:39;;;;;;;12.00;3.80;;;30.40;42.70;;;;;;5051164;28;20021;-81
2023/09/28 09:36:05;;;;;;;19.40;4.20;;;30.50;42.70;;;;;;5050155;28;20082;-80
2023/09/28 09:38:31;;;;;;;7.05;3.75;;;30.60;42.90;;;;;;5049647;28;20025;-82
2023/09/28 09:40:58;;;;;;;12.85;4.53;;;30.70;41.70;;;;;;5050022;28;20039;-82
2023/09/28 09:43:23;;;;;;;15.50;3.80;;;30.70;41.90;;;;;;5050858;28;20056;-81
2023/09/28 09:45:49;;;;;;;23.73;4.45;;;30.80;42.60;;;;;;5049318;28;20489;-83
2023/09/28 09:48:16;;;;;;;13.98;4.50;;;31.10;42.20;;;;;;5050561;28;20036;-81
2023/09/28 09:50:43;;;;;;;11.23;3.83;;;31.30;42.30;;;;;;5049277;28;20028;-81
2023/09/28 09:53:10;;;;;;;9.02;4.28;;;31.60;42.10;;;;;;5050617;28;20111;-82
2023/09/28 09:55:41;;;;;;;18.58;4.30;;;31.70;41.40;;;;;;5050252;28;20043;-81
2023/09/28 09:58:11;;;;;;;10.05;4.70;;;31.80;41.50;;;;;;5049684;28;20401;-82
2023/09/28 10:00:37;;;;;;;15.18;5.13;;;31.60;39.70;;;;;;5050690;28;20029;-81
2023/09/28 10:03:05;;;;;;;10.15;4.05;;;31.30;39.60;;;;;;5049411;28;20040;-81
2023/09/28 10:05:34;;;;;;;13.57;4.82;;;31.10;40.40;;;;;;5050442;28;20024;-81
2023/09/28 10:08:02;;;;;;;15.07;4.90;;;31.10;41.20;;;;;;5049181;28;20112;-81
2023/09/28 10:10:29;;;;;;;15.75;4.68;;;31.00;41.60;;;;;;5049531;28;20031;-82
2023/09/28 10:12:55;;;;;;;15.98;4.65;;;31.10;41.90;;;;;;5049765;28;20032;-82
2023/09/28 10:15:22;;;;;;;13.10;4.65;;;31.00;41.90;;;;;;5049460;28;20083;-80
2023/09/28 10:17:49;;;;;;;15.20;4.13;;;31.00;40.90;;;;;;5049111;28;20048;-80
2023/09/28 10:20:16;;;;;;;11.07;4.07;;;30.90;41.10;;;;;;5051457;28;20025;-82
2023/09/28 10:22:44;;;;;;;10.63;3.95;;;30.60;42.30;;;;;;5050394;28;20035;-81
2023/09/28 10:25:15;;;;;;;9.15;4.70;;;30.10;43.70;;;;;;5048963;28;20464;-82
2023/09/28 10:27:46;;;;;;;11.48;5.30;;;29.50;44.00;;;;;;5049009;28;20040;-82
2023/09/28 10:30:18;;;;;;;14.75;5.18;;;29.00;44.30;;;;;;5049178;28;20037;-81
2023/09/28 10:32:44;;;;;;;15.93;4.72;;;28.60;43.70;;;;;;5050148;28;20035;-81
2023/09/28 10:35:29;;;;;;;13.70;3.90;;;28.30;44.00;;;;;;5049896;28;20032;-80
2023/09/28 10:38:21;;;;;;;10.63;4.93;;;28.00;45.70;;;;;;5049872;28;20029;-82
2023/09/28 10:41:02;;;;;;;18.90;5.32;;;27.60;45.90;;;;;;5048853;28;20045;-82
2023/09/28 10:43:34;;;;;;;11.55;4.95;;;27.40;47.10;;;;;;5049595;28;20111;-82
2023/09/28 10:46:05;;;;;;;24.23;4.80;;;27.40;47.30;;;;;;5048930;28;20573;-82
2023/09/28 10:48:45;;;;;;;20.23;5.00;;;27.40;46.50;;;;;;5050085;28;20486;-80
2023/09/28 10:51:15;;;;;;;14.45;5.00;;;27.20;45.10;;;;;;5049010;28;20051;-82
2023/09/28 10:53:42;;;;;;;18.75;5.28;;;27.00;46.60;;;;;;5048418;28;20040;-81
2023/09/28 10:56:08;;;;;;;20.00;4.63;;;26.90;46.20;;;;;;5050277;28;20043;-82
2023/09/28 10:58:43;;;;;;;12.68;4.53;;;26.70;46.20;;;;;;5049771;28;20033;-82
2023/09/28 11:01:10;;;;;;;12.90;4.10;;;26.70;45.70;;;;;;5049784;28;20021;-81
2023/09/28 11:03:36;;;;;;;14.00;4.68;;;26.50;46.20;;;;;;5048040;28;20532;-81
2023/09/28 11:06:03;;;;;;;11.88;3.85;;;26.50;47.00;;;;;;5049123;28;20029;-81
2023/09/28 11:08:30;;;;;;;12.43;4.20;;;26.60;47.00;;;;;;5049723;28;20025;-81
2023/09/28 11:11:01;;;;;;;11.52;5.25;;;26.60;45.40;;;;;;5045491;28;20043;-81
2023/09/28 11:13:27;;;;;;;14.93;5.05;;;26.70;46.00;;;;;;5045023;28;20060;-83
2023/09/28 11:15:53;;;;;;;10.90;5.30;;;26.70;46.70;;;;;;5029496;28;20033;-82
2023/09/28 11:18:21;;;;;;;13.68;4.03;;;26.90;47.30;;;;;;5028385;28;20532;-82
2023/09/28 11:20:47;;;;;;;11.38;4.53;;;26.90;46.70;;;;;;5028264;28;20030;-83
2023/09/28 11:23:12;;;;;;;13.57;5.28;;;26.90;45.30;;;;;;5029931;28;20037;-83
2023/09/28 11:25:42;;;;;;;12.80;4.88;;;26.80;45.60;;;;;;5034751;28;20438;-82
2023/09/28 11:28:09;;;;;;;19.05;4.18;;;26.80;45.60;;;;;;5036027;28;20029;-84
2023/09/28 11:30:36;;;;;;;11.18;4.28;;;26.80;45.50;;;;;;5034255;28;20029;-82
2023/09/28 11:33:04;;;;;;;19.30;4.47;;;26.70;46.30;;;;;;5035624;28;20028;-82
2023/09/28 11:35:39;;;;;;;12.55;4.25;;;26.70;45.10;;;;;;5035083;28;20029;-82
2023/09/28 11:38:09;;;;;;;13.63;4.47;;;26.70;45.30;;;;;;5036048;28;20029;-82
2023/09/28 11:40:37;;;;;;;8.60;4.35;;;26.70;45.10;;;;;;5036122;28;20030;-82
2023/09/28 11:43:03;;;;;;;13.13;5.07;;;26.70;44.50;;;;;;5035603;28;20065;-82
2023/09/28 11:45:31;;;;;;;17.27;4.72;;;26.70;44.60;;;;;;5036127;28;20487;-81
2023/09/28 11:47:57;;;;;;;12.05;4.78;;;26.70;45.30;;;;;;5035355;28;20048;-81
2023/09/28 11:50:27;;;;;;;16.15;5.22;;;26.60;45.60;;;;;;5035971;28;20030;-82
2023/09/28 11:52:53;;;;;;;12.10;5.30;;;26.70;46.00;;;;;;5034125;28;20029;-81
2023/09/28 11:55:19;;;;;;;15.30;4.72;;;26.70;44.40;;;;;;5035928;28;20021;-82
2023/09/28 11:57:45;;;;;;;18.25;4.00;;;26.70;44.30;;;;;;5050918;28;20036;-81
2023/09/28 12:00:21;;;;;;;13.27;4.50;;;26.70;44.20;;;;;;5040146;28;20029;-82
2023/09/28 12:02:47;;;;;;;14.27;5.17;;;26.70;45.00;;;;;;5043626;28;20505;-82
2023/09/28 12:05:13;;;;;;;16.63;4.50;;;26.70;44.80;;;;;;5043426;28;20146;-82
2023/09/28 12:07:42;;;;;;;10.80;3.80;;;26.70;44.60;;;;;;5045725;28;20458;-81
2023/09/28 12:10:14;;;;;;;8.60;3.92;;;26.70;44.70;;;;;;5033862;28;20079;-82
2023/09/28 12:12:40;;;;;;;14.95;4.72;;;26.80;44.20;;;;;;5034371;28;20029;-82
2023/09/28 12:15:10;;;;;;;8.57;4.10;;;26.80;43.50;;;;;;5034468;28;20037;-81
2023/09/28 12:17:40;;;;;;;11.98;4.40;;;26.70;43.40;;;;;;5034506;28;20464;-81
2023/09/28 12:20:08;;;;;;;16.23;3.83;;;26.70;43.60;;;;;;5037128;28;20026;-82
2023/09/28 12:22:34;;;;;;;12.55;3.58;;;26.70;43.70;;;;;;5040379;28;20044;-80
2023/09/28 12:25:01;;;;;;;27.20;4.57;;;26.80;44.40;;;;;;5041641;28;20451;-82
2023/09/28 12:27:30;;;;;;;12.32;4.75;;;26.90;43.50;;;;;;5037909;28;20029;-83
2023/09/28 12:29:55;;;;;;;14.18;3.88;;;26.90;43.60;;;;;;5035377;28;20033;-80
2023/09/28 12:32:21;;;;;;;18.40;4.32;;;27.00;43.90;;;;;;5033958;28;20116;-82
2023/09/28 12:34:47;;;;;;;16.48;4.93;;;27.10;44.30;;;;;;5033605;28;20029;-80
2023/09/28 12:37:13;;;;;;;17.95;4.18;;;27.10;43.60;;;;;;5030299;28;20040;-83
2023/09/28 12:39:39;;;;;;;18.10;3.55;;;27.20;42.60;;;;;;5037478;28;20025;-83